createdAt,value
2019-04-21T00:00:56.798Z,1017.89
2019-04-21T00:01:52.149Z,1017.83
2019-04-21T00:02:50.488Z,1017.84
2019-04-21T00:03:53.898Z,1017.87
2019-04-21T00:05:06.059Z,1017.84
2019-04-21T00:06:11.986Z,1017.81
2019-04-21T00:07:09.010Z,1017.83
2019-04-21T00:08:21.389Z,1017.79
2019-04-21T00:09:11.510Z,1017.83
2019-04-21T00:10:16.739Z,1017.80
2019-04-21T00:11:37.734Z,1017.78
2019-04-21T00:12:07.445Z,1017.77
2019-04-21T00:13:02.174Z,1017.78
2019-04-21T00:14:01.000Z,1017.83
2019-04-21T00:15:01.960Z,1017.78
2019-04-21T00:15:57.370Z,1017.77
2019-04-21T00:16:57.505Z,1017.76
2019-04-21T00:17:56.106Z,1017.77
2019-04-21T00:18:58.049Z,1017.79
2019-04-21T00:19:50.039Z,1017.78
2019-04-21T00:20:53.481Z,1017.77
2019-04-21T00:21:56.345Z,1017.76
2019-04-21T00:23:05.909Z,1017.74
2019-04-21T00:24:04.858Z,1017.74
2019-04-21T00:25:08.664Z,1017.75
2019-04-21T00:26:01.917Z,1017.76
2019-04-21T00:27:06.898Z,1017.72
2019-04-21T00:28:09.393Z,1017.71
2019-04-21T00:29:17.561Z,1017.74
2019-04-21T00:30:12.246Z,1017.71
2019-04-21T00:31:04.320Z,1017.67
2019-04-21T00:32:06.898Z,1017.68
2019-04-21T00:32:59.732Z,1017.64
2019-04-21T00:33:51.347Z,1017.65
2019-04-21T00:34:56.261Z,1017.65
2019-04-21T00:35:59.054Z,1017.61
2019-04-21T00:36:59.749Z,1017.58
2019-04-21T00:38:14.891Z,1017.61
2019-04-21T00:39:20.711Z,1017.59
2019-04-21T00:40:09.436Z,1017.57
2019-04-21T00:41:14.722Z,1017.53
2019-04-21T00:42:11.534Z,1017.53
2019-04-21T00:43:09.038Z,1017.50
2019-04-21T00:44:04.503Z,1017.51
2019-04-21T00:45:03.477Z,1017.46
2019-04-21T00:45:59.968Z,1017.45
2019-04-21T00:47:01.979Z,1017.45
2019-04-21T00:48:10.088Z,1017.43
2019-04-21T00:49:06.177Z,1017.42
2019-04-21T00:50:10.815Z,1017.45
2019-04-21T00:51:24.997Z,1017.44
2019-04-21T00:52:23.756Z,1017.42
2019-04-21T00:53:20.776Z,1017.45
2019-04-21T00:54:18.464Z,1017.43
2019-04-21T00:55:23.098Z,1017.37
2019-04-21T00:56:15.260Z,1017.41
2019-04-21T00:57:21.979Z,1017.39
2019-04-21T00:58:18.347Z,1017.41
2019-04-21T00:59:13.894Z,1017.40
2019-04-21T01:00:15.526Z,1017.40
2019-04-21T01:01:12.164Z,1017.36
2019-04-21T01:02:14.329Z,1017.36
2019-04-21T01:03:14.239Z,1017.36
2019-04-21T01:04:09.943Z,1017.37
2019-04-21T01:05:16.688Z,1017.36
2019-04-21T01:06:20.903Z,1017.34
2019-04-21T01:07:16.779Z,1017.39
2019-04-21T01:08:10.019Z,1017.32
2019-04-21T01:09:08.217Z,1017.34
2019-04-21T01:10:06.617Z,1017.31
2019-04-21T01:11:12.324Z,1017.32
2019-04-21T01:12:08.096Z,1017.29
2019-04-21T01:13:18.703Z,1017.28
2019-04-21T01:14:12.171Z,1017.27
2019-04-21T01:15:22.807Z,1017.27
2019-04-21T01:16:18.762Z,1017.26
2019-04-21T01:17:12.900Z,1017.23
2019-04-21T01:18:10.779Z,1017.25
2019-04-21T01:19:13.921Z,1017.23
2019-04-21T01:20:01.139Z,1017.26
2019-04-21T01:20:49.360Z,1017.27
2019-04-21T01:21:48.358Z,1017.25
2019-04-21T01:22:48.359Z,1017.23
2019-04-21T01:23:48.663Z,1017.24
2019-04-21T01:24:57.910Z,1017.25
2019-04-21T01:26:01.880Z,1017.29
2019-04-21T01:27:01.015Z,1017.22
2019-04-21T01:28:04.980Z,1017.23
2019-04-21T01:29:10.424Z,1017.20
2019-04-21T01:30:12.867Z,1017.23
2019-04-21T01:31:08.778Z,1017.20
2019-04-21T01:32:13.177Z,1017.18
2019-04-21T01:33:12.407Z,1017.19
2019-04-21T01:34:13.402Z,1017.17
2019-04-21T01:35:08.662Z,1017.16
2019-04-21T01:36:11.361Z,1017.15
2019-04-21T01:37:03.918Z,1017.16
2019-04-21T01:38:19.566Z,1017.13
2019-04-21T01:39:13.170Z,1017.16
2019-04-21T01:40:21.259Z,1017.15
2019-04-21T01:41:13.304Z,1017.13
2019-04-21T01:42:12.662Z,1017.15
2019-04-21T01:43:10.253Z,1017.08
2019-04-21T01:44:06.251Z,1017.12
2019-04-21T01:45:12.798Z,1017.11
2019-04-21T01:46:05.393Z,1017.12
2019-04-21T01:47:06.108Z,1017.10
2019-04-21T01:48:06.522Z,1017.10
2019-04-21T01:49:03.372Z,1017.09
2019-04-21T01:49:59.065Z,1017.11
2019-04-21T01:51:05.061Z,1017.10
2019-04-21T01:52:21.443Z,1017.07
2019-04-21T01:53:15.447Z,1017.07
2019-04-21T01:54:14.695Z,1017.07
2019-04-21T01:55:16.389Z,1017.01
2019-04-21T01:56:11.845Z,1017.05
2019-04-21T01:57:07.325Z,1017.05
2019-04-21T01:58:01.422Z,1017.01
2019-04-21T01:58:56.412Z,1017.05
2019-04-21T01:59:59.771Z,1017.04
2019-04-21T02:01:03.606Z,1017.06
2019-04-21T02:02:10.743Z,1017.03
2019-04-21T02:03:28.185Z,1017.01
2019-04-21T02:04:06.774Z,1017.01
2019-04-21T02:05:17.459Z,1017.02
2019-04-21T02:07:08.490Z,1016.98
2019-04-21T02:08:06.662Z,1017.01
2019-04-21T02:09:04.895Z,1017.00
2019-04-21T02:10:11.539Z,1017.00
2019-04-21T02:11:12.597Z,1016.99
2019-04-21T02:12:10.102Z,1017.00
2019-04-21T02:13:09.031Z,1016.97
2019-04-21T02:14:10.878Z,1016.98
2019-04-21T02:15:14.266Z,1016.98
2019-04-21T02:16:11.330Z,1016.98
2019-04-21T02:17:13.295Z,1016.96
2019-04-21T02:18:10.474Z,1016.96
2019-04-21T02:19:04.454Z,1016.93
2019-04-21T02:20:03.753Z,1016.94
2019-04-21T02:20:59.301Z,1016.93
2019-04-21T02:22:02.132Z,1016.90
2019-04-21T02:24:15.201Z,1016.90
2019-04-21T02:25:16.592Z,1016.89
2019-04-21T02:26:12.733Z,1016.85
2019-04-21T02:27:14.935Z,1016.86
2019-04-21T02:28:14.819Z,1016.85
2019-04-21T02:29:18.926Z,1016.87
2019-04-21T02:30:18.368Z,1016.83
2019-04-21T02:31:22.840Z,1016.83
2019-04-21T02:32:14.754Z,1016.81
2019-04-21T02:33:27.966Z,1016.78
2019-04-21T02:38:30.253Z,1016.74
2019-04-21T02:39:22.179Z,1016.75
2019-04-21T02:41:15.735Z,1016.73
2019-04-21T02:42:18.680Z,1016.75
2019-04-21T02:43:21.118Z,1016.75
2019-04-21T02:44:37.738Z,1016.73
2019-04-21T02:46:27.730Z,1016.69
2019-04-21T02:52:23.787Z,1016.62
